Union Mills, New York
Current Conditions -  °F | °C
As of 3:15 PM on Thursday 30 Oct 2014 (Local Time) from KNY0 Reporting Station
Broken Clouds Broken Clouds  
Wind Chill: 44°   Ceiling: 3300
Heat Index: 48°   Visibility: 10mi
Dew Point: 36°   Wind: 9mph
Humidity: 63%   Direction: 270°W
Pressure: 29.97"   Gusts: NA
Location:  43.0744°N, 74.1473°W
Report Text: KNY0 301915Z AUTO 27008KT 10SM BKN033 BKN043 BKN050 09/02 A2997 RMK AO2 T00880021
Loading
Personal Weather Stations






























Interactive Weather Map
Tropical Storm Tracking
New forecast layout! Learn more

10-Day Weather Forecast

Advertisements
Track Severe Weather on mobile